• Join FlightAware (Why Join?)
  • Login
  • US Flag 
02:20PM EDT


 

Airport Tracker/Info


-or-


 

Live Flight TrackerFlight Track Log ✈ N804JJ ✈ 19-Nov-2013 ✈ KTEB - KRYY

Flight Track Log - Related Links

Times and Time Zones

All times are in EST time to prevent confusion due to time zone crossing. See the N804JJ flight status page for this flight to view local times or setup timezone preferences in your user account.

Time Position Orientation Groundspeed Altitude Reporting Facility
EST Latitude Longitude Course Direction KTS MPH feet Rate Location/Type
10:34PM 40.9000 -74.0333 311° West 200 230 1,900  Level New York TRACON
10:35PM 40.9333 -74.0833 311° West 232 267 2,100 1,380 Climbing New York TRACON
10:36PM 40.9167 -74.1667 255° West 237 273 4,600 2,760 Climbing New York TRACON
10:37PM 40.9000 -74.2500 255° West 270 311 7,700 2,820 Climbing New York TRACON
10:39PM 40.7719 -74.4839 234° Southwest 318 366 14,500 2,580 Climbing New York Center
10:40PM 40.7125 -74.5819 231° Southwest 340 391 16,700 2,040 Climbing New York Center
10:41PM 40.6575 -74.6719 231° Southwest 355 409 18,600 2,160 Climbing New York Center
10:42PM 40.5958 -74.7750 232° Southwest 360 414 21,100 2,160 Climbing New York Center
10:43PM 40.5319 -74.8778 231° Southwest 365 420 23,000 2,100 Climbing New York Center
10:44PM 40.4656 -74.9831 230° Southwest 370 426 25,300 1,860 Climbing New York Center
10:45PM 40.4014 -75.0881 231° Southwest 370 426 26,800 1,800 Climbing New York Center
10:46PM 40.3342 -75.2144 235° Southwest 383 441 28,900 1,680 Climbing New York Center
10:47PM 40.2656 -75.3217 230° Southwest 389 448 30,200 1,260 Climbing New York Center
10:48PM 40.1967 -75.4314 231° Southwest 394 453 31,500 1,080 Climbing New York Center
10:49PM 40.1292 -75.5489 233° Southwest 404 465 32,400 1,080 Climbing New York Center
10:50PM 40.0622 -75.6583 231° Southwest 404 465 33,700 1,080 Climbing New York Center
10:51PM 39.9911 -75.7644 229° Southwest 404 465 34,600 900 Climbing New York Center
10:52PM 39.9239 -75.8761 232° Southwest 398 458 35,500 600 Climbing New York Center
10:53PM 39.8544 -75.9844 230° Southwest 398 458 35,900 240 Climbing New York Center
10:54PM 39.7847 -76.0956 231° Southwest 403 464 36,000  Climbing New York Center
10:57PM 39.6236 -76.3511 231° Southwest 408 470 36,000  Level Washington Center
10:58PM 39.5478 -76.4689 230° Southwest 414 476 36,000  Level Washington Center
10:59PM 39.4656 -76.5997 231° Southwest 427 491 36,000  Level Washington Center
11:00PM 39.3897 -76.7167 230° Southwest 432 497 36,000  Level Washington Center
11:01PM 39.3092 -76.8308 228° Southwest 432 497 36,000  Level Washington Center
11:02PM 39.2500 -76.9208 230° Southwest 427 491 36,000  Level Washington Center
11:03PM 39.1733 -77.0561 234° Southwest 427 491 36,000  Level Washington Center
11:04PM 39.1031 -77.1750 233° Southwest 427 491 36,000  Level Washington Center
11:05PM 39.0286 -77.2911 230° Southwest 432 497 36,000  Level Washington Center
11:06PM 38.9519 -77.4039 229° Southwest 432 497 36,000  Level Washington Center
11:07PM 38.8731 -77.5114 227° Southwest 426 490 36,000  Level Washington Center
11:08PM 38.7961 -77.6239 229° Southwest 426 490 36,000  Level Washington Center
11:09PM 38.7172 -77.7361 228° Southwest 426 490 36,000  Level Washington Center
11:10PM 38.6419 -77.8483 229° Southwest 426 490 36,000  Level Washington Center
11:11PM 38.5647 -77.9628 229° Southwest 426 490 36,000  Level Washington Center
11:12PM 38.4872 -78.0878 232° Southwest 421 484 36,000  Level Washington Center
11:13PM 38.4181 -78.2019 232° Southwest 415 478 36,000  Level Washington Center
11:14PM 38.3425 -78.3183 230° Southwest 415 478 36,000  Level Washington Center
11:15PM 38.2711 -78.4347 232° Southwest 420 483 36,000  Level Washington Center
11:16PM 38.2100 -78.5408 234° Southwest 420 483 36,000  Level Washington Center
11:17PM 38.1297 -78.6669 231° Southwest 420 483 36,000  Level Washington Center
11:18PM 38.0581 -78.7800 231° Southwest 420 483 36,000  Level Washington Center
11:19PM 37.9839 -78.8931 230° Southwest 420 483 36,000  Level Washington Center
11:20PM 37.9119 -79.0083 232° Southwest 420 483 36,000  Level Washington Center
11:21PM 37.8486 -79.1078 231° Southwest 420 483 36,000  Level Washington Center
11:22PM 37.7764 -79.2203 231° Southwest 415 478 36,000  Level Washington Center
11:23PM 37.6933 -79.3422 229° Southwest 415 478 36,000  Level Washington Center
11:24PM 37.6275 -79.4439 231° Southwest 415 478 36,000  Level Washington Center
11:25PM 37.5464 -79.5681 231° Southwest 415 478 36,000  Level Washington Center
11:26PM 37.4825 -79.6667 231° Southwest 415 478 36,000  Level Washington Center
11:27PM 37.4053 -79.7856 231° Southwest 424 488 36,000  Level Washington Center
11:28PM 37.2756 -79.9806 230° Southwest 414 476 36,000  Level Atlanta Center
11:29PM 37.2022 -80.0914 230° Southwest 409 471 36,000  Level Atlanta Center
11:30PM 37.1325 -80.1964 230° Southwest 409 471 36,000  Level Atlanta Center
11:31PM 37.0508 -80.3172 230° Southwest 409 471 36,000  Level Atlanta Center
11:32PM 36.9789 -80.4272 231° Southwest 409 471 36,000  Level Atlanta Center
11:33PM 36.9069 -80.5344 230° Southwest 409 471 36,000  Level Atlanta Center
11:34PM 36.8350 -80.6414 230° Southwest 409 471 36,000  Level Atlanta Center
11:35PM 36.7708 -80.7347 229° Southwest 409 471 36,000  Level Atlanta Center
11:36PM 36.6986 -80.8439 230° Southwest 409 471 36,000  Level Atlanta Center
11:37PM 36.6264 -80.9503 230° Southwest 409 471 36,000  Level Atlanta Center
11:38PM 36.5517 -81.0564 229° Southwest 409 471 36,000  Level Atlanta Center
11:39PM 36.4833 -81.1650 232° Southwest 409 471 36,000  Level Atlanta Center
11:40PM 36.4108 -81.2706 230° Southwest 409 471 36,000  Level Atlanta Center
11:41PM 36.3403 -81.3761 230° Southwest 409 471 36,000  Level Atlanta Center
11:42PM 36.2653 -81.4817 229° Southwest 409 471 36,000  Level Atlanta Center
11:43PM 36.1922 -81.5869 229° Southwest 414 476 36,000  Level Atlanta Center
11:44PM 36.1214 -81.6892 229° Southwest 407 468 36,000  Level Atlanta Center
11:45PM 36.0483 -81.7967 230° Southwest 402 463 36,000  Level Atlanta Center
11:46PM 35.9728 -81.8989 228° Southwest 407 468 36,000  Level Atlanta Center
11:47PM 35.9036 -82.0006 230° Southwest 407 468 36,000  Level Atlanta Center
11:48PM 35.8303 -82.1025 228° Southwest 401 461 36,000  Level Atlanta Center
11:49PM 35.7589 -82.2092 231° Southwest 401 461 36,000  Level Atlanta Center
11:50PM 35.6792 -82.3208 229° Southwest 401 461 36,000  Level Atlanta Center
11:51PM 35.6053 -82.4194 227° Southwest 394 453 36,000  Level Atlanta Center
11:52PM 35.5336 -82.5228 230° Southwest 394 453 36,000  Level Atlanta Center
11:53PM 35.4617 -82.6211 228° Southwest 394 453 36,000 -300 Level Atlanta Center
11:54PM 35.3961 -82.7164 230° Southwest 399 459 35,400 -1,140 Descending Atlanta Center
11:55PM 35.3219 -82.8194 229° Southwest 407 468 33,800 -1,200 Descending Atlanta Center
11:56PM 35.2375 -82.9378 229° Southwest 413 475 33,100 -660 Descending Atlanta Center
11:57PM 35.1717 -83.0325 230° Southwest 413 475 32,500 -960 Descending Atlanta Center
11:58PM 35.0975 -83.1350 229° Southwest 408 470 31,200 -1,560 Descending Atlanta Center
11:59PM 35.0208 -83.2397 228° Southwest 414 476 29,400 -1,800 Descending Atlanta Center
12:00AM 34.9444 -83.3444 228° Southwest 414 476 27,700 -1,740 Descending Atlanta Center
12:01AM 34.8675 -83.4464 227° Southwest 414 476 26,000 -1,620 Descending Atlanta Center
12:02AM 34.7972 -83.5406 228° Southwest 402 463 24,500 -2,100 Descending Atlanta Center
12:03AM 34.7264 -83.6344 227° Southwest 387 445 21,800 -2,760 Descending Atlanta Center
12:04AM 34.6536 -83.7333 228° Southwest 387 445 19,000 -2,580 Descending Atlanta Center
12:05AM 34.5831 -83.8394 231° Southwest 382 440 16,700 -2,400 Descending Atlanta Center
12:06AM 34.5183 -83.9278 228° Southwest 371 427 14,300 -2,340 Descending Atlanta Center
12:07AM 34.4539 -84.0111 227° Southwest 353 406 12,100 -2,220 Descending Atlanta Center
12:08AM 34.3892 -84.0892 225° Southwest 334 384 9,900 -2,100 Descending Atlanta Center
12:09AM 34.3264 -84.1669 226° Southwest 328 377 7,900 -1,500 Descending Atlanta Center
12:10AM 34.2719 -84.2425 229° Southwest 316 364 6,900 -1,260 Descending Atlanta Center
12:11AM 34.2219 -84.3075 227° Southwest 290 334 5,400 -1,500 Descending Atlanta Center
12:12AM 34.1717 -84.3778 229° Southwest 280 322 4,000 -1,140 Descending Atlanta Center
12:13AM 34.1297 -84.4378 230° Southwest 274 315 3,200 -840 Descending Atlanta Center
12:17AM 34.0375 -84.5444 228° Southwest  Level FlightAware Approximate
12:24AM 34.0000 -84.5833 220° Southwest  Level FlightAware Approximate
12:25AM 34.0132 -84.5971 220° Southwest  Level Estimated
12:26AM 34.0132 -84.5971 220° Southwest  Level Estimated
12:27AM 34.0132 -84.5971 220° Southwest  Level Estimated
12:28AM 34.0132 -84.5971 220° Southwest  Level Estimated
12:29AM 34.0132 -84.5971 220° Southwest  Level Estimated
12:30AM 34.0132 -84.5971 220° Southwest  Level Estimated
12:31AM 34.0132 -84.5971 220° Southwest  Level Estimated
12:32AM 34.0132 -84.5971 220° Southwest  Level Estimated